In Rescue
 
Open Full Screen Window  High Contrast Mode
Wind Gusting 14 knots
09
May 25, 2022 8:11 PM CDT
Weather Information
Wind Direction
  360 °
Wind Speed
  09 kt (10 mph)
Wind Gust
  14 kt (16 mph)
Altimeter
29.90 in
Visibility
10 SM
Temperature
08° C
46° F
Dewpoint
06° C
43° F
Humidity
87%
1hr Rain Fall
00.00 in.
24hr Rain Fall
00.49 in.
Sky Condition
Overcast @ 1,100 ft
MVFR

METAR KROS 260111Z AUTO 36009G14KT 10SM OVC011 08/06 A2990 RMK AO2 T00770062

FAA Disclaimer: The data displayed is for advisory purposes only and is not to be used for flight planning or operations.